Time;durP1;ratioP1;P1;durP2;ratioP2;P2;SDS_P1;SDS_P2;PMS_P1;PMS_P2;Temp;Humidity;BMP_temperature;BMP_pressure;BME280_temperature;BME280_humidity;BME280_pressure;Samples;Min_cycle;Max_cycle;Signal;HPM_P1;HPM_P2
2024/02/12 00:01:11;;;;;;;6.50;1.30;;;;;;;8.27;100.00;98144.72;108424;1262;22633;-81
2024/02/12 00:04:02;;;;;;;6.90;1.40;;;;;;;8.26;100.00;98141.99;108424;1271;22571;-80
2024/02/12 00:06:56;;;;;;;9.60;1.10;;;;;;;8.25;100.00;98146.53;107900;1273;22863;-81
2024/02/12 00:09:47;;;;;;;4.50;1.00;;;;;;;8.22;100.00;98153.46;107944;1273;22605;-82
2024/02/12 00:12:38;;;;;;;5.70;1.00;;;;;;;8.21;100.00;98154.33;107898;1272;23446;-81
2024/02/12 00:15:29;;;;;;;4.80;1.00;;;;;;;8.20;100.00;98157.33;107802;1266;24035;-80
2024/02/12 00:18:23;;;;;;;6.60;0.90;;;;;;;8.18;100.00;98158.34;107653;1273;24367;-80
2024/02/12 00:21:14;;;;;;;4.80;0.90;;;;;;;8.16;100.00;98155.88;107958;1273;24581;-81
2024/02/12 00:24:06;;;;;;;6.70;1.10;;;;;;;8.13;100.00;98158.88;107845;1273;22778;-81
2024/02/12 00:27:00;;;;;;;4.20;0.80;;;;;;;8.10;100.00;98163.83;108451;1270;22608;-82
2024/02/12 00:29:52;;;;;;;4.90;0.80;;;;;;;8.09;100.00;98167.11;107785;1266;22608;-81
2024/02/12 00:32:43;;;;;;;5.70;0.80;;;;;;;8.08;100.00;98171.02;107739;1273;23758;-82
2024/02/12 00:35:34;;;;;;;3.50;0.60;;;;;;;8.05;100.00;98174.61;107766;1273;22630;-81
2024/02/12 00:38:26;;;;;;;3.60;0.60;;;;;;;8.03;100.00;98172.35;108501;1273;22552;-82
2024/02/12 00:41:20;;;;;;;2.70;0.50;;;;;;;8.02;100.00;98174.13;107937;1266;22580;-81
2024/02/12 00:44:11;;;;;;;2.40;0.50;;;;;;;7.99;100.00;98181.05;107811;1273;28122;-81
2024/02/12 00:47:03;;;;;;;2.10;0.40;;;;;;;7.98;100.00;98182.16;107891;1273;22779;-81
2024/02/12 00:49:54;;;;;;;4.80;0.60;;;;;;;7.96;100.00;98181.67;107856;1274;24242;-81
2024/02/12 00:52:44;;;;;;;4.60;0.40;;;;;;;7.95;100.00;98183.39;107914;1274;22841;-82
2024/02/12 00:55:36;;;;;;;3.90;0.40;;;;;;;7.93;100.00;98182.50;107852;1274;22751;-81
2024/02/12 00:58:27;;;;;;;4.00;0.60;;;;;;;7.92;100.00;98184.83;109492;1273;22643;-81
2024/02/12 01:01:19;;;;;;;1.50;0.30;;;;;;;7.90;100.00;98184.82;107923;1273;22639;-80
2024/02/12 01:04:10;;;;;;;3.20;0.40;;;;;;;7.88;100.00;98188.92;107855;1273;22590;-81
2024/02/12 01:07:01;;;;;;;2.80;0.40;;;;;;;7.85;100.00;98193.47;107926;1273;23330;-82
2024/02/12 01:09:52;;;;;;;1.10;0.30;;;;;;;7.83;100.00;98194.30;107934;1273;22769;-80
2024/02/12 01:12:44;;;;;;;2.40;0.50;;;;;;;7.83;100.00;98200.20;107909;1273;24315;-80
2024/02/12 01:15:35;;;;;;;3.20;0.30;;;;;;;7.81;100.00;98203.34;107863;1269;24339;-79
2024/02/12 01:18:26;;;;;;;2.40;0.40;;;;;;;7.80;100.00;98202.39;107920;1272;25479;-80
2024/02/12 01:21:18;;;;;;;4.60;0.30;;;;;;;7.79;100.00;98203.10;107982;1270;24338;-79
2024/02/12 01:24:09;;;;;;;4.30;0.30;;;;;;;7.78;100.00;98203.05;107920;1273;22707;-79
2024/02/12 01:27:00;;;;;;;2.00;0.30;;;;;;;7.75;100.00;98205.88;107892;1273;22582;-80
2024/02/12 01:29:51;;;;;;;3.90;0.50;;;;;;;7.73;100.00;98208.91;107898;1270;23843;-81
2024/02/12 01:32:42;;;;;;;2.70;0.60;;;;;;;7.72;100.00;98207.55;107880;1273;25381;-80
2024/02/12 01:35:33;;;;;;;2.60;0.40;;;;;;;7.71;100.00;98208.06;107909;1273;22671;-79
2024/02/12 01:38:24;;;;;;;1.00;0.20;;;;;;;7.70;100.00;98212.34;107859;1273;23900;-80
2024/02/12 01:41:16;;;;;;;1.20;0.30;;;;;;;7.67;100.00;98213.97;107892;1266;26718;-79
2024/02/12 01:44:07;;;;;;;2.00;0.40;;;;;;;7.66;100.00;98217.46;107850;1273;25249;-80
2024/02/12 01:46:59;;;;;;;1.80;0.20;;;;;;;7.66;100.00;98220.35;107835;1274;25355;-79
2024/02/12 01:49:52;;;;;;;2.40;0.30;;;;;;;7.64;100.00;98218.33;107877;1274;22533;-80
2024/02/12 01:52:48;;;;;;;1.00;0.30;;;;;;;7.62;100.00;98218.73;107797;1274;27682;-80
2024/02/12 01:55:41;;;;;;;2.20;0.30;;;;;;;7.61;100.00;98221.71;107781;1273;24468;-81
2024/02/12 01:58:32;;;;;;;2.50;0.50;;;;;;;7.61;100.00;98220.30;110806;1273;22184;-80
2024/02/12 02:01:23;;;;;;;1.80;0.30;;;;;;;7.61;100.00;98225.05;110804;1267;23403;-79
2024/02/12 02:04:14;;;;;;;2.40;0.30;;;;;;;7.60;100.00;98220.96;110808;1273;22502;-80
2024/02/12 02:07:06;;;;;;;1.60;0.30;;;;;;;7.59;100.00;98225.70;110820;1272;22929;-80
2024/02/12 02:09:57;;;;;;;1.40;0.30;;;;;;;7.58;100.00;98227.82;110808;1273;22126;-80
2024/02/12 02:12:48;;;;;;;2.30;0.40;;;;;;;7.58;100.00;98227.83;110825;1271;23090;-82
2024/02/12 02:15:42;;;;;;;3.20;0.50;;;;;;;7.57;100.00;98232.17;110819;1263;22255;-81
2024/02/12 02:18:34;;;;;;;2.60;0.40;;;;;;;7.57;100.00;98237.73;110776;1273;22191;-80
2024/02/12 02:21:25;;;;;;;1.80;0.40;;;;;;;7.57;100.00;98240.09;110790;1273;22106;-80
2024/02/12 02:24:18;;;;;;;2.50;0.40;;;;;;;7.56;100.00;98240.66;110821;1267;22138;-77
2024/02/12 02:27:09;;;;;;;1.80;0.30;;;;;;;7.56;100.00;98245.80;110827;1269;22227;-77
2024/02/12 02:30:00;;;;;;;1.10;0.40;;;;;;;7.58;100.00;98253.83;110781;1273;22813;-79
2024/02/12 02:32:52;;;;;;;1.80;0.40;;;;;;;7.58;100.00;98252.82;110816;1273;22227;-81
2024/02/12 02:35:44;;;;;;;3.60;0.40;;;;;;;7.58;100.00;98254.73;110834;1272;22235;-78
2024/02/12 02:38:35;;;;;;;1.10;0.20;;;;;;;7.57;100.00;98257.48;110814;1273;22160;-78
2024/02/12 02:41:26;;;;;;;0.90;0.20;;;;;;;7.58;100.00;98258.93;110796;1273;22201;-79
2024/02/12 02:44:17;;;;;;;2.50;0.40;;;;;;;7.59;100.00;98266.25;110812;1273;22222;-78
2024/02/12 02:47:10;;;;;;;2.00;0.20;;;;;;;7.59;100.00;98268.17;110860;1267;22097;-79
2024/02/12 02:50:01;;;;;;;3.10;0.30;;;;;;;7.58;100.00;98267.58;110830;1273;23110;-80
2024/02/12 02:52:50;;;;;;;;;;;;;;;7.58;100.00;98269.03;110768;1274;22274;-78
2024/02/12 02:55:40;;;;;;;1.40;0.20;;;;;;;7.56;100.00;98267.36;110701;1274;22270;-78
2024/02/12 02:58:31;;;;;;;1.50;0.40;;;;;;;7.56;100.00;98267.91;110827;1273;22581;-78
2024/02/12 03:01:20;;;;;;;;;;;;;;;7.56;100.00;98270.14;110846;1270;22368;-79
2024/02/12 03:04:13;;;;;;;2.70;0.40;;;;;;;7.55;100.00;98280.73;110833;1270;22236;-78
2024/02/12 03:07:06;;;;;;;1.30;0.30;;;;;;;7.55;100.00;98282.31;110721;1273;22140;-79
2024/02/12 03:09:57;;;;;;;1.20;0.20;;;;;;;7.54;100.00;98288.56;110828;1273;22204;-79
2024/02/12 03:12:48;;;;;;;1.40;0.30;;;;;;;7.54;100.00;98288.02;110779;1272;22842;-79
2024/02/12 03:15:40;;;;;;;3.10;0.40;;;;;;;7.54;100.00;98294.02;110814;1273;22234;-78
2024/02/12 03:18:30;;;;;;;2.50;0.40;;;;;;;7.54;100.00;98295.48;110797;1266;22177;-78
2024/02/12 03:21:23;;;;;;;2.80;0.60;;;;;;;7.53;100.00;98294.38;110820;1263;23094;-79
2024/02/12 03:24:14;;;;;;;1.80;0.60;;;;;;;7.52;100.00;98294.02;110842;1273;22912;-79
2024/02/12 03:27:05;;;;;;;2.80;0.50;;;;;;;7.51;100.00;98294.32;110828;1266;22111;-78
2024/02/12 03:29:56;;;;;;;2.00;0.40;;;;;;;7.49;100.00;98297.70;110815;1262;22829;-78
2024/02/12 03:32:47;;;;;;;5.00;0.80;;;;;;;7.49;100.00;98302.60;110718;1273;22251;-78
2024/02/12 03:35:41;;;;;;;3.50;0.40;;;;;;;7.48;100.00;98306.63;110833;1272;22250;-78
2024/02/12 03:38:32;;;;;;;4.90;0.50;;;;;;;7.47;100.00;98309.45;110761;1273;22103;-79
2024/02/12 03:41:23;;;;;;;;;;;;;;;7.45;100.00;98307.19;110728;1265;22381;-78
2024/02/12 03:44:14;;;;;;;2.70;0.30;;;;;;;7.44;100.00;98311.04;110780;1273;22192;-79
2024/02/12 03:47:05;;;;;;;2.10;0.40;;;;;;;7.42;100.00;98315.27;110837;1273;22387;-81
2024/02/12 04:02:27;;;;;;;1.70;0.30;;;;;;;7.40;100.00;98320.78;110841;1273;22371;-79
2024/02/12 04:05:19;;;;;;;3.70;0.60;;;;;;;7.38;100.00;98319.61;110795;1273;22183;-79
2024/02/12 04:08:10;;;;;;;3.50;0.70;;;;;;;7.37;100.00;98322.42;110809;1265;22182;-80
2024/02/12 04:11:01;;;;;;;4.60;0.70;;;;;;;7.36;100.00;98320.88;110816;1273;23012;-79
2024/02/12 04:13:54;;;;;;;4.70;0.80;;;;;;;7.35;100.00;98325.75;110709;1274;22128;-80
2024/02/12 04:16:51;;;;;;;2.30;0.50;;;;;;;7.34;100.00;98324.09;110750;1274;22971;-79
2024/02/12 04:19:42;;;;;;;2.90;0.70;;;;;;;7.33;100.00;98323.99;110694;1274;22164;-80
2024/02/12 04:22:34;;;;;;;4.70;0.70;;;;;;;7.32;100.00;98327.36;110852;1263;22087;-80
2024/02/12 04:25:25;;;;;;;3.90;0.80;;;;;;;7.31;100.00;98323.83;110835;1270;22376;-79
2024/02/12 04:28:18;;;;;;;4.50;0.60;;;;;;;7.30;100.00;98327.02;110824;1270;22119;-79
2024/02/12 04:31:09;;;;;;;4.90;0.80;;;;;;;7.31;100.00;98326.41;110821;1273;22234;-80
2024/02/12 04:34:00;;;;;;;5.20;0.90;;;;;;;7.32;100.00;98331.46;110815;1266;22189;-80
2024/02/12 04:36:55;;;;;;;3.70;0.70;;;;;;;7.30;100.00;98335.49;110820;1273;22159;-80
2024/02/12 04:39:48;;;;;;;5.00;1.00;;;;;;;7.30;100.00;98333.27;110824;1267;22181;-80
2024/02/12 04:42:39;;;;;;;3.20;0.70;;;;;;;7.31;100.00;98334.48;110812;1273;22195;-80
2024/02/12 04:45:30;;;;;;;5.10;0.80;;;;;;;7.32;100.00;98339.13;110802;1273;22244;-81
2024/02/12 04:48:22;;;;;;;9.70;1.00;;;;;;;7.33;100.00;98342.61;110816;1273;22146;-81
2024/02/12 04:51:13;;;;;;;2.00;0.60;;;;;;;7.34;100.00;98348.52;110832;1273;22411;-80
2024/02/12 04:54:04;;;;;;;5.60;0.90;;;;;;;7.33;100.00;98346.34;110818;1273;22149;-81
2024/02/12 04:56:55;;;;;;;4.90;0.80;;;;;;;7.31;100.00;98351.95;110855;1267;23069;-82
2024/02/12 04:59:46;;;;;;;5.20;0.80;;;;;;;7.29;100.00;98350.73;110825;1269;22172;-81
2024/02/12 05:02:37;;;;;;;2.80;0.60;;;;;;;7.28;100.00;98352.24;110850;1273;23199;-81
2024/02/12 05:05:29;;;;;;;3.00;0.60;;;;;;;7.28;100.00;98359.36;110868;1267;22197;-81
2024/02/12 05:08:20;;;;;;;3.20;0.60;;;;;;;7.28;100.00;98357.94;110793;1273;22279;-82
2024/02/12 05:11:09;;;;;;;;;;;;;;;7.26;100.00;98360.36;110792;1273;22392;-81
2024/02/12 05:14:00;;;;;;;4.70;0.80;;;;;;;7.25;100.00;98361.02;110799;1273;22259;-81
2024/02/12 05:16:51;;;;;;;4.20;0.60;;;;;;;7.23;100.00;98366.16;110836;1273;22638;-82
2024/02/12 05:22:56;;;;;;;4.20;0.60;;;;;;;7.20;100.00;98371.05;110452;1273;23089;-82
2024/02/12 05:25:47;;;;;;;1.90;0.50;;;;;;;7.19;100.00;98367.83;110693;1274;22149;-82
2024/02/12 05:28:38;;;;;;;2.80;0.60;;;;;;;7.18;100.00;98372.86;110726;1274;23496;-82
2024/02/12 05:31:29;;;;;;;4.10;0.70;;;;;;;7.19;100.00;98375.80;110829;1270;22338;-82
2024/02/12 05:34:21;;;;;;;3.60;0.70;;;;;;;7.21;100.00;98382.21;110794;1267;22339;-82
2024/02/12 05:37:12;;;;;;;4.30;0.50;;;;;;;7.25;100.00;98386.16;110803;1273;23570;-82
2024/02/12 05:40:03;;;;;;;3.60;0.60;;;;;;;7.25;100.00;98389.52;110810;1273;22082;-81
2024/02/12 05:42:54;;;;;;;4.00;0.80;;;;;;;7.25;100.00;98394.02;110779;1270;22177;-81
2024/02/12 05:45:45;;;;;;;3.50;0.70;;;;;;;7.23;100.00;98393.27;110757;1273;22198;-81
2024/02/12 05:48:38;;;;;;;5.30;0.60;;;;;;;7.25;100.00;98399.67;110781;1273;22173;-81
2024/02/12 05:51:29;;;;;;;2.90;0.60;;;;;;;7.25;100.00;98403.77;110771;1273;22218;-81
2024/02/12 05:54:20;;;;;;;3.50;0.60;;;;;;;7.26;100.00;98406.28;110777;1269;23493;-81
2024/02/12 05:57:11;;;;;;;4.80;0.80;;;;;;;7.27;100.00;98411.39;110738;1273;22227;-82
2024/02/12 06:00:02;;;;;;;5.10;0.70;;;;;;;7.27;100.00;98413.52;110796;1273;22102;-81
2024/02/12 06:02:55;;;;;;;3.10;0.60;;;;;;;7.28;100.00;98412.85;110844;1267;22144;-79
2024/02/12 06:05:45;;;;;;;3.90;0.90;;;;;;;7.29;100.00;98420.02;110793;1266;22201;-82
2024/02/12 06:08:36;;;;;;;4.70;0.80;;;;;;;7.30;100.00;98417.95;110778;1266;22177;-80
2024/02/12 06:11:27;;;;;;;1.90;0.50;;;;;;;7.30;100.00;98423.40;110800;1263;23125;-81
2024/02/12 06:14:18;;;;;;;2.90;0.50;;;;;;;7.28;100.00;98429.00;110799;1267;22165;-80
2024/02/12 06:17:10;;;;;;;4.60;0.80;;;;;;;7.28;100.00;98424.71;110777;1267;22321;-80
2024/02/12 06:20:01;;;;;;;4.60;0.70;;;;;;;7.30;100.00;98429.77;110739;1274;23284;-81
2024/02/12 06:22:52;;;;;;;4.90;0.80;;;;;;;7.30;100.00;98434.46;110716;1274;22168;-81
2024/02/12 06:25:43;;;;;;;2.80;0.60;;;;;;;7.29;100.00;98432.23;110693;1274;22347;-80
2024/02/12 06:28:34;;;;;;;3.20;0.70;;;;;;;7.29;100.00;98436.23;110805;1273;22411;-81
2024/02/12 06:31:25;;;;;;;9.90;0.90;;;;;;;7.30;100.00;98437.23;110771;1273;22275;-82
2024/02/12 06:34:16;;;;;;;5.70;0.60;;;;;;;7.29;100.00;98444.30;110792;1273;22172;-80
2024/02/12 06:37:07;;;;;;;4.70;0.80;;;;;;;7.30;100.00;98454.04;110785;1270;22160;-80
2024/02/12 06:39:58;;;;;;;3.60;0.80;;;;;;;7.30;100.00;98457.78;110765;1257;22202;-80
2024/02/12 06:42:49;;;;;;;7.10;1.20;;;;;;;7.29;100.00;98459.79;110779;1265;22357;-80
2024/02/12 06:45:40;;;;;;;5.70;0.80;;;;;;;7.31;100.00;98465.14;110784;1273;22964;-79
2024/02/12 06:48:31;;;;;;;6.60;0.80;;;;;;;7.32;100.00;98466.41;110777;1273;22195;-82
2024/02/12 06:51:21;;;;;;;;;;;;;;;7.33;100.00;98464.65;110841;1270;23218;-81
2024/02/12 06:54:12;;;;;;;3.00;0.60;;;;;;;7.34;100.00;98471.16;110792;1273;22391;-80
2024/02/12 06:57:03;;;;;;;5.80;0.70;;;;;;;7.36;100.00;98475.21;110776;1273;22236;-80
2024/02/12 06:59:53;;;;;;;4.60;0.80;;;;;;;7.38;100.00;98479.61;110798;1270;22238;-80
2024/02/12 07:02:46;;;;;;;2.40;0.60;;;;;;;7.39;100.00;98482.54;110765;1266;22153;-80
2024/02/12 07:05:38;;;;;;;3.80;0.80;;;;;;;7.40;100.00;98484.80;110794;1273;22179;-80
2024/02/12 07:08:29;;;;;;;2.30;0.60;;;;;;;7.42;100.00;98488.90;110761;1273;23380;-80
2024/02/12 07:11:18;;;;;;;;;;;;;;;7.45;100.00;98495.53;110756;1273;22444;-81
2024/02/12 07:14:09;;;;;;;4.50;0.70;;;;;;;7.48;100.00;98499.33;110753;1273;22325;-80
2024/02/12 07:17:00;;;;;;;3.50;0.80;;;;;;;7.50;100.00;98498.92;110774;1273;22249;-79
2024/02/12 07:19:51;;;;;;;6.30;1.00;;;;;;;7.53;100.00;98505.70;110737;1274;22278;-79
2024/02/12 07:22:42;;;;;;;7.00;1.00;;;;;;;7.57;100.00;98505.25;110785;1273;22165;-79
2024/02/12 07:25:34;;;;;;;5.40;1.10;;;;;;;7.60;100.00;98505.67;110784;1273;23077;-78
2024/02/12 07:28:25;;;;;;;9.20;1.20;;;;;;;7.63;100.00;98507.50;110783;1257;22220;-79
2024/02/12 07:31:16;;;;;;;5.90;1.00;;;;;;;7.68;100.00;98508.02;110799;1270;22219;-79
2024/02/12 07:34:07;;;;;;;6.40;1.20;;;;;;;7.72;100.00;98511.20;110785;1262;22173;-77
2024/02/12 07:36:57;;;;;;;7.00;0.90;;;;;;;7.76;100.00;98520.86;110764;1273;22181;-80
2024/02/12 07:39:49;;;;;;;4.70;0.80;;;;;;;7.80;100.00;98522.09;110794;1273;22303;-79
2024/02/12 07:42:42;;;;;;;4.60;0.80;;;;;;;7.83;100.00;98525.03;110761;1273;22240;-81
2024/02/12 07:45:34;;;;;;;5.80;0.90;;;;;;;7.86;100.00;98520.84;110749;1269;22354;-80
2024/02/12 07:48:25;;;;;;;6.50;0.90;;;;;;;7.90;100.00;98522.20;110756;1273;22239;-80
2024/02/12 07:51:17;;;;;;;4.50;0.80;;;;;;;7.95;100.00;98523.48;110753;1273;23005;-79
2024/02/12 07:54:08;;;;;;;6.70;1.30;;;;;;;7.98;100.00;98524.35;110744;1264;22226;-81
2024/02/12 07:56:58;;;;;;;5.90;1.10;;;;;;;8.03;100.00;98526.67;110730;1270;22322;-81
2024/02/12 07:59:50;;;;;;;5.60;0.80;;;;;;;8.06;100.00;98531.58;110766;1265;22357;-81
2024/02/12 08:02:43;;;;;;;4.50;0.80;;;;;;;8.10;100.00;98537.80;110688;1265;22630;-81
2024/02/12 08:05:37;;;;;;;8.20;1.10;;;;;;;8.15;100.00;98544.54;110729;1266;22181;-78
2024/02/12 08:08:29;;;;;;;5.00;0.90;;;;;;;8.20;100.00;98544.38;110745;1273;22120;-79
2024/02/12 08:11:20;;;;;;;4.80;0.90;;;;;;;8.25;100.00;98546.94;110729;1266;22335;-80
2024/02/12 08:14:11;;;;;;;4.80;1.00;;;;;;;8.30;100.00;98548.27;110799;1273;22345;-82
2024/02/12 08:17:04;;;;;;;2.70;0.80;;;;;;;8.35;100.00;98552.98;110809;1273;22270;-80
2024/02/12 08:19:55;;;;;;;7.70;1.20;;;;;;;8.38;100.00;98557.42;110710;1274;23087;-80
2024/02/12 08:22:46;;;;;;;4.30;1.10;;;;;;;8.42;100.00;98558.17;110699;1274;22211;-80
2024/02/12 08:25:38;;;;;;;4.90;1.10;;;;;;;8.45;100.00;98560.26;110808;1273;22228;-82
2024/02/12 08:28:29;;;;;;;6.00;1.10;;;;;;;8.48;100.00;98565.48;110790;1270;22279;-79
2024/02/12 08:31:20;;;;;;;4.70;0.90;;;;;;;8.50;100.00;98568.00;110773;1265;23071;-80
2024/02/12 08:34:12;;;;;;;5.80;0.90;;;;;;;8.54;100.00;98573.06;110792;1273;22198;-80
2024/02/12 08:37:04;;;;;;;5.20;1.00;;;;;;;8.59;100.00;98578.42;110793;1273;22149;-79
2024/02/12 08:39:54;;;;;;;7.00;1.20;;;;;;;8.63;100.00;98581.05;110821;1273;22999;-79
2024/02/12 08:42:46;;;;;;;9.60;1.30;;;;;;;8.68;100.00;98583.28;110798;1265;23052;-80
2024/02/12 08:45:36;;;;;;;6.40;1.10;;;;;;;8.72;100.00;98587.27;110785;1266;22169;-82
2024/02/12 08:48:28;;;;;;;9.60;1.40;;;;;;;8.76;100.00;98593.29;110771;1273;22193;-81
2024/02/12 08:51:20;;;;;;;6.40;1.30;;;;;;;8.79;100.00;98598.65;110787;1268;22305;-78
2024/02/12 08:54:11;;;;;;;6.70;1.20;;;;;;;8.81;100.00;98605.89;110794;1265;22183;-80
2024/02/12 08:57:05;;;;;;;7.30;1.50;;;;;;;8.83;100.00;98605.74;110811;1273;22224;-78
2024/02/12 08:59:56;;;;;;;4.70;1.20;;;;;;;8.86;100.00;98608.42;110751;1267;22184;-78
2024/02/12 09:02:47;;;;;;;7.60;1.40;;;;;;;8.89;100.00;98613.02;110784;1266;23029;-78
2024/02/12 09:05:38;;;;;;;7.50;1.30;;;;;;;8.94;100.00;98613.81;110755;1266;22914;-78
2024/02/12 09:08:29;;;;;;;9.30;1.50;;;;;;;8.97;100.00;98611.64;110742;1266;22137;-79
2024/02/12 09:11:20;;;;;;;4.90;1.10;;;;;;;9.02;100.00;98617.36;110788;1272;22952;-78
2024/02/12 09:14:11;;;;;;;5.70;1.20;;;;;;;9.07;100.00;98619.18;110729;1266;22451;-79
2024/02/12 09:17:02;;;;;;;5.80;1.20;;;;;;;9.10;100.00;98621.86;110797;1273;23008;-80
2024/02/12 09:19:53;;;;;;;3.70;0.90;;;;;;;9.16;100.00;98625.85;110723;1274;22213;-75
2024/02/12 09:22:44;;;;;;;7.10;1.10;;;;;;;9.21;100.00;98623.78;110720;1262;22202;-77
2024/02/12 09:25:35;;;;;;;6.70;1.40;;;;;;;9.24;100.00;98627.36;110720;1274;22219;-76
2024/02/12 09:28:27;;;;;;;8.80;1.30;;;;;;;9.28;100.00;98634.84;110777;1273;22170;-77
2024/02/12 09:31:17;;;;;;;7.00;1.00;;;;;;;9.33;100.00;98640.71;110761;1273;22160;-78
2024/02/12 09:34:08;;;;;;;;;;;;;;;9.37;100.00;98644.05;110694;1273;22483;-76
2024/02/12 09:37:13;;;;;;;6.00;1.20;;;;;;;9.42;100.00;98653.30;110795;1265;23216;-77
2024/02/12 09:40:23;;;;;;;5.90;1.30;;;;;;;9.48;99.98;98657.04;110717;1265;22163;-78
2024/02/12 09:43:45;;;;;;;6.90;1.40;;;;;;;9.53;99.99;98657.48;110812;1273;22171;-77
2024/02/12 09:46:40;;;;;;;9.00;1.70;;;;;;;9.57;99.83;98658.09;110719;1274;22914;-77
2024/02/12 09:49:31;;;;;;;6.00;1.20;;;;;;;9.61;99.55;98661.58;110798;1253;22334;-78
2024/02/12 09:52:22;;;;;;;9.40;1.30;;;;;;;9.63;98.79;98664.34;110798;1270;22252;-78
2024/02/12 09:55:14;;;;;;;8.00;1.50;;;;;;;9.64;98.73;98664.89;110774;1272;22339;-77
2024/02/12 09:58:06;;;;;;;8.60;1.70;;;;;;;9.66;97.87;98666.92;110791;1273;22248;-77
2024/02/12 10:00:58;;;;;;;5.90;1.20;;;;;;;9.68;98.23;98670.77;110793;1273;22230;-79
2024/02/12 10:03:50;;;;;;;9.40;1.50;;;;;;;9.71;98.44;98673.03;110768;1270;22182;-77
2024/02/12 10:06:40;;;;;;;8.60;1.60;;;;;;;9.75;97.95;98677.64;110787;1273;22200;-77
2024/02/12 10:09:31;;;;;;;10.80;1.70;;;;;;;9.78;97.67;98680.58;110802;1270;22186;-78
2024/02/12 10:12:22;;;;;;;12.40;2.30;;;;;;;9.81;97.19;98682.59;110747;1273;22219;-78
2024/02/12 10:15:14;;;;;;;10.10;1.80;;;;;;;9.83;97.23;98683.95;110792;1273;22107;-77
2024/02/12 10:18:06;;;;;;;8.20;1.80;;;;;;;9.85;97.00;98686.23;110820;1259;22201;-76
2024/02/12 10:20:57;;;;;;;7.90;1.70;;;;;;;9.87;97.22;98685.16;110819;1273;23073;-78
2024/02/12 10:23:48;;;;;;;6.80;1.50;;;;;;;9.90;96.41;98686.21;110739;1265;23504;-78
2024/02/12 10:26:38;;;;;;;7.90;1.30;;;;;;;9.93;96.60;98688.02;110771;1273;22219;-77
2024/02/12 10:29:30;;;;;;;5.30;1.10;;;;;;;9.95;96.78;98687.63;110812;1266;22324;-78
2024/02/12 10:32:22;;;;;;;6.50;1.10;;;;;;;9.96;95.67;98684.02;110767;1259;22348;-79
2024/02/12 10:35:15;;;;;;;5.80;0.80;;;;;;;9.97;95.73;98689.13;110768;1266;22346;-78
2024/02/12 10:38:07;;;;;;;12.10;1.70;;;;;;;9.96;95.19;98691.41;110758;1266;22266;-78
2024/02/12 10:41:13;;;;;;;6.00;1.00;;;;;;;9.94;94.95;98694.10;110712;1274;23151;-78
2024/02/12 10:44:06;;;;;;;8.20;1.20;;;;;;;9.93;94.76;98697.44;110654;1273;22273;-77
2024/02/12 10:46:57;;;;;;;6.50;1.10;;;;;;;9.92;94.67;98698.32;110750;1274;22188;-77
2024/02/12 10:49:49;;;;;;;6.20;1.30;;;;;;;9.91;94.45;98696.74;110715;1274;22120;-77
2024/02/12 10:52:42;;;;;;;10.20;1.40;;;;;;;9.89;94.03;98699.99;110724;1274;22908;-77
2024/02/12 10:55:34;;;;;;;9.90;2.00;;;;;;;9.88;94.19;98694.58;110767;1273;22231;-76
2024/02/12 10:58:25;;;;;;;12.70;2.90;;;;;;;9.90;94.31;98695.14;110815;1269;22145;-77
2024/02/12 11:01:17;;;;;;;17.70;4.10;;;;;;;9.95;94.39;98691.46;110797;1265;22186;-79
2024/02/12 11:04:13;;;;;;;13.90;2.50;;;;;;;9.99;93.82;98694.40;110783;1273;22263;-78
2024/02/12 11:07:15;;;;;;;20.80;6.40;;;;;;;10.04;94.12;98693.16;110788;1273;22191;-79
2024/02/12 11:10:09;;;;;;;15.10;3.00;;;;;;;10.10;93.90;98692.69;110777;1273;22884;-76
2024/02/12 11:13:05;;;;;;;12.10;2.30;;;;;;;10.14;93.13;98696.70;110814;1269;22228;-76
2024/02/12 11:15:59;;;;;;;8.50;1.30;;;;;;;10.17;92.50;98699.42;110713;1273;22196;-79
2024/02/12 11:18:58;;;;;;;6.80;1.20;;;;;;;10.20;93.09;98704.34;110742;1266;22839;-79
2024/02/12 11:21:57;;;;;;;5.30;1.60;;;;;;;10.23;93.01;98707.60;110799;1271;22161;-76
2024/02/12 11:24:55;;;;;;;6.50;1.20;;;;;;;10.26;92.40;98710.70;110816;1270;22150;-77
2024/02/12 11:27:52;;;;;;;6.20;1.20;;;;;;;10.27;91.44;98712.81;110779;1273;22201;-76
2024/02/12 11:30:44;;;;;;;8.80;1.00;;;;;;;10.27;90.25;98715.45;110783;1273;23201;-78
2024/02/12 11:33:35;;;;;;;4.40;0.90;;;;;;;10.26;90.59;98717.58;110809;1273;22239;-77
2024/02/12 11:36:27;;;;;;;4.90;0.90;;;;;;;10.27;90.34;98718.80;110826;1273;22394;-77
2024/02/12 11:39:18;;;;;;;8.10;0.80;;;;;;;10.28;89.08;98720.00;110810;1272;23317;-76
2024/02/12 11:42:10;;;;;;;3.60;0.70;;;;;;;10.28;88.33;98720.52;110857;1270;22155;-78
2024/02/12 11:45:01;;;;;;;3.60;0.70;;;;;;;10.28;87.88;98721.08;110827;1270;22246;-76
2024/02/12 11:47:52;;;;;;;4.40;0.70;;;;;;;10.29;88.91;98723.95;110769;1273;22158;-76
2024/02/12 11:50:43;;;;;;;5.10;0.90;;;;;;;10.32;88.18;98724.46;110781;1272;22263;-77
2024/02/12 11:53:37;;;;;;;7.00;0.70;;;;;;;10.34;87.40;98725.63;110838;1273;22226;-78
2024/02/12 11:56:29;;;;;;;7.60;1.00;;;;;;;10.37;87.95;98727.53;110737;1273;22151;-76
2024/02/12 11:59:23;;;;;;;4.40;0.70;;;;;;;10.42;88.21;98724.46;110854;1273;22973;-77
2024/02/12 12:02:14;;;;;;;5.10;0.40;;;;;;;10.46;86.96;98729.06;110808;1272;22362;-78
2024/02/12 12:05:05;;;;;;;4.20;0.50;;;;;;;10.48;86.66;98727.52;110849;1273;22245;-77
2024/02/12 12:07:58;;;;;;;2.40;0.50;;;;;;;10.50;86.18;98730.80;110717;1262;22261;-77
2024/02/12 12:10:49;;;;;;;4.10;0.70;;;;;;;10.52;86.41;98735.63;110722;1274;22166;-77
2024/02/12 12:13:40;;;;;;;5.30;0.60;;;;;;;10.54;86.42;98733.64;110746;1274;22158;-76
2024/02/12 12:16:32;;;;;;;3.60;0.50;;;;;;;10.57;86.80;98736.96;110726;1273;22167;-77
2024/02/12 12:19:23;;;;;;;7.80;1.20;;;;;;;10.59;86.28;98735.89;110811;1273;22236;-76
2024/02/12 12:22:19;;;;;;;4.00;0.80;;;;;;;10.58;86.33;98738.13;110788;1266;22116;-77
2024/02/12 12:25:11;;;;;;;3.50;0.70;;;;;;;10.55;85.08;98743.27;110809;1259;22195;-75
2024/02/12 12:28:05;;;;;;;2.90;0.90;;;;;;;10.52;85.03;98744.41;110814;1273;22298;-76
2024/02/12 12:30:56;;;;;;;5.90;0.80;;;;;;;10.50;84.98;98749.59;110791;1273;22235;-77
2024/02/12 12:33:47;;;;;;;5.50;0.80;;;;;;;10.48;84.87;98750.20;110795;1273;23314;-78
2024/02/12 12:36:38;;;;;;;2.40;0.70;;;;;;;10.47;84.55;98754.67;110780;1273;22258;-78
2024/02/12 12:39:30;;;;;;;10.50;1.80;;;;;;;10.46;84.60;98754.02;110782;1273;22897;-78
2024/02/12 12:42:23;;;;;;;8.00;1.30;;;;;;;10.45;83.96;98752.60;110792;1273;22168;-76
2024/02/12 12:45:15;;;;;;;10.00;1.70;;;;;;;10.43;83.91;98751.03;110774;1273;23056;-77
2024/02/12 12:48:07;;;;;;;5.40;1.00;;;;;;;10.43;84.47;98752.05;110781;1265;23103;-77
2024/02/12 12:50:58;;;;;;;7.30;1.00;;;;;;;10.40;83.64;98760.44;110821;1273;22383;-77
2024/02/12 12:53:49;;;;;;;5.80;1.50;;;;;;;10.37;83.94;98759.08;110830;1273;22281;-76
2024/02/12 12:56:40;;;;;;;10.80;1.20;;;;;;;10.36;84.41;98765.13;110752;1269;22240;-76
2024/02/12 12:59:31;;;;;;;11.20;2.80;;;;;;;10.38;84.71;98765.46;110850;1266;22200;-78
2024/02/12 13:02:22;;;;;;;9.20;1.30;;;;;;;10.39;84.56;98770.23;110821;1273;22418;-77
2024/02/12 13:05:14;;;;;;;4.50;1.10;;;;;;;10.41;84.08;98773.98;110820;1273;22224;-77
2024/02/12 13:08:10;;;;;;;10.40;2.00;;;;;;;10.44;83.93;98770.52;110834;1273;22959;-77
2024/02/12 13:11:02;;;;;;;5.90;0.80;;;;;;;10.46;83.66;98771.27;110715;1274;22088;-76
2024/02/12 13:13:53;;;;;;;6.70;1.40;;;;;;;10.48;83.93;98774.66;110721;1274;22283;-77
2024/02/12 13:16:45;;;;;;;4.10;1.30;;;;;;;10.51;83.37;98776.79;110751;1274;22347;-78
2024/02/12 13:19:36;;;;;;;2.80;0.80;;;;;;;10.52;82.96;98777.13;110171;1274;22780;-79
2024/02/12 13:22:28;;;;;;;11.80;3.00;;;;;;;10.54;83.21;98780.41;107974;1273;25390;-78
2024/02/12 13:25:18;;;;;;;7.30;1.30;;;;;;;10.57;82.79;98775.07;110809;1266;23212;-78
2024/02/12 13:28:10;;;;;;;8.90;1.50;;;;;;;10.61;82.17;98779.10;110778;1273;22193;-78
2024/02/12 13:31:01;;;;;;;9.20;2.40;;;;;;;10.63;82.57;98775.71;110805;1270;22486;-80
2024/02/12 13:33:53;;;;;;;4.20;1.00;;;;;;;10.65;82.63;98777.27;110837;1273;23011;-80
2024/02/12 13:36:49;;;;;;;6.20;0.90;;;;;;;10.64;81.85;98784.27;110819;1272;22132;-78